Accueil
METAR-TAF:

METAR-TAF

Aéroports :

Station RAF de Northolt

Northolt, Angleterre

latitude: 51-33N, longitude: 000-25W, altitude: 38 m

Observation

Le bulletin a été fait il y a 12 minutes, à 14:22 UTC
Vent 10 kt de ouest
Température 23°C
Humidité 53%
Pression 1024 hPa
Visibilité 10 km ou plus
Nuages fragmentés à une hauteur de 4000 ft

METAR: EGWU 221422Z 26010KT 9999 BKN040 23/13 Q1024 NOSIG RMK BLU BLU

Heure: 15:34 (14:34 UTC)

Prévision

Le bulletin a été fait il y a 3 heures et 48 minutes, à 10:46 UTC
Prévision valable du 22 à 12 UTC au 23 à 06 UTC
Vent 10 kt de sud-ouest
Visibilité 10 km ou plus
Quelques nuages à une hauteur de 3500 ft
Evoluant progressivement
du 23 à 00 UTC au 23 à 03 UTC
Visibilité: 6000 m
brume
Probabilité 40%
du 23 à 03 UTC au 23 à 06 UTC
Visibilité: 3000 m
Brouillard mince

TAF: EGWU 221046Z 2212/2306 23010KT 9999 FEW035 BECMG 2300/2303 6000 BR PROB40 2303/2306 3000 MIFG

Observations et prévisions météorologiques de plus de 4000 aéroports (messages METAR et TAF).

Les stations disponibles sont représentées par des disques jaunes et rouges sur la carte.

Passer la souris dessus pour voir le nom de la station.

Cliquer dessus pour voir les observations et prévisions météorologiques.

Pour changer de carte: cliquez sur les boutons verts avec une croix noire pour zoomer, sur le bouton vert avec un tiret pour effectuer un zoom arrière, ou sur les flèches vertes pour les cartes adjacentes.


METAR-TAF: